Time;durP1;ratioP1;P1;durP2;ratioP2;P2;SDS_P1;SDS_P2;PMS_P1;PMS_P2;Temp;Humidity;BMP_temperature;BMP_pressure;BME280_temperature;BME280_humidity;BME280_pressure;Samples;Min_cycle;Max_cycle;Signal;HPM_P1;HPM_P2
2024/01/26 00:00:44;;;;;;;14.45;8.18;;;10.80;99.90;;;;;;5096086;28;20024;-54
2024/01/26 00:03:10;;;;;;;17.08;8.00;;;10.80;99.90;;;;;;5096209;28;20051;-53
2024/01/26 00:05:36;;;;;;;15.60;7.60;;;10.80;99.90;;;;;;5096125;28;20384;-55
2024/01/26 00:08:02;;;;;;;15.70;8.20;;;10.80;99.90;;;;;;5096087;28;20028;-65
2024/01/26 00:10:27;;;;;;;18.90;9.23;;;10.80;99.90;;;;;;5096070;28;20434;-52
2024/01/26 00:12:53;;;;;;;15.63;7.15;;;10.80;99.90;;;;;;5096007;28;20020;-55
2024/01/26 00:15:18;;;;;;;11.15;6.90;;;10.80;99.90;;;;;;5105997;28;20039;-54
2024/01/26 00:17:44;;;;;;;13.32;7.75;;;10.80;99.90;;;;;;5116154;28;20428;-54
2024/01/26 00:20:10;;;;;;;12.07;6.68;;;10.80;99.90;;;;;;5112973;28;20115;-54
2024/01/26 00:22:36;;;;;;;16.38;7.45;;;10.80;99.90;;;;;;5096115;28;20039;-53
2024/01/26 00:25:02;;;;;;;11.32;6.85;;;10.80;99.90;;;;;;5094521;28;20060;-55
2024/01/26 00:27:28;;;;;;;10.68;6.75;;;10.80;99.90;;;;;;5096015;28;20077;-53
2024/01/26 00:29:53;;;;;;;12.65;6.90;;;10.80;99.90;;;;;;5095659;28;20483;-55
2024/01/26 00:32:19;;;;;;;14.30;6.75;;;10.80;99.90;;;;;;5094243;28;20032;-55
2024/01/26 00:34:45;;;;;;;10.48;6.15;;;10.80;99.90;;;;;;5095754;28;20031;-51
2024/01/26 00:37:10;;;;;;;10.52;6.55;;;10.80;99.90;;;;;;5095483;28;20039;-55
2024/01/26 00:39:36;;;;;;;11.52;6.55;;;10.70;99.90;;;;;;5107725;28;20026;-54
2024/01/26 00:42:02;;;;;;;9.95;5.88;;;10.80;99.90;;;;;;5098607;28;20035;-54
2024/01/26 00:44:27;;;;;;;9.27;6.00;;;10.90;99.90;;;;;;5094915;28;20024;-55
2024/01/26 00:46:53;;;;;;;10.93;5.97;;;10.90;99.90;;;;;;5095426;28;20039;-55
2024/01/26 00:49:19;;;;;;;9.02;5.63;;;10.90;99.90;;;;;;5095294;28;20482;-55
2024/01/26 00:51:44;;;;;;;8.73;5.60;;;10.90;99.90;;;;;;5095214;28;20028;-53
2024/01/26 00:54:10;;;;;;;12.30;5.85;;;10.80;99.90;;;;;;5095208;28;20024;-55
2024/01/26 00:56:36;;;;;;;9.45;4.93;;;10.80;99.90;;;;;;5095094;28;20036;-54
2024/01/26 00:59:01;;;;;;;9.60;5.65;;;10.80;99.90;;;;;;5095086;28;20023;-55
2024/01/26 01:01:27;;;;;;;9.20;5.78;;;10.90;99.90;;;;;;5095043;28;20017;-56
2024/01/26 01:03:53;;;;;;;10.60;5.65;;;10.90;99.90;;;;;;5095016;28;20104;-56
2024/01/26 01:06:19;;;;;;;10.05;6.07;;;10.90;99.90;;;;;;5094878;28;20470;-55
2024/01/26 01:08:44;;;;;;;9.65;5.40;;;10.90;99.90;;;;;;5094725;28;20527;-53
2024/01/26 01:11:10;;;;;;;9.52;5.60;;;10.90;99.90;;;;;;5097416;28;20070;-54
2024/01/26 01:13:36;;;;;;;9.27;5.32;;;10.80;99.90;;;;;;5094849;28;20035;-55
2024/01/26 01:16:02;;;;;;;7.85;5.47;;;10.90;99.90;;;;;;5094525;28;20024;-48
2024/01/26 01:18:28;;;;;;;9.20;5.90;;;10.90;99.90;;;;;;5094641;28;20050;-48
2024/01/26 01:20:54;;;;;;;12.35;6.28;;;10.90;99.90;;;;;;5098091;28;20153;-42
2024/01/26 01:23:20;;;;;;;9.55;5.72;;;10.90;99.90;;;;;;5115180;28;20023;-41
2024/01/26 01:25:46;;;;;;;9.65;5.72;;;10.90;99.90;;;;;;5109079;28;20392;-42
2024/01/26 01:28:11;;;;;;;9.82;5.68;;;10.90;99.90;;;;;;5094642;28;20028;-43
2024/01/26 01:30:37;;;;;;;11.85;6.40;;;10.90;99.90;;;;;;5093212;28;20028;-40
2024/01/26 01:33:03;;;;;;;12.07;5.85;;;10.90;99.90;;;;;;5104007;28;20023;-40
2024/01/26 01:35:28;;;;;;;10.73;5.38;;;10.90;99.90;;;;;;5110912;28;20028;-42
2024/01/26 01:37:54;;;;;;;8.70;5.18;;;10.90;99.90;;;;;;5100702;28;20062;-40
2024/01/26 01:40:20;;;;;;;10.82;5.53;;;10.90;99.90;;;;;;5114702;28;20028;-39
2024/01/26 01:42:46;;;;;;;8.40;4.88;;;10.90;99.90;;;;;;5114615;28;20020;-40
2024/01/26 01:45:13;;;;;;;11.63;4.97;;;10.90;99.90;;;;;;5111197;28;20476;-42
2024/01/26 01:47:40;;;;;;;9.63;4.90;;;11.00;99.90;;;;;;5093029;28;20407;-41
2024/01/26 01:50:07;;;;;;;6.68;4.57;;;11.00;99.90;;;;;;5094194;28;20065;-42
2024/01/26 01:52:34;;;;;;;6.97;4.55;;;11.00;99.90;;;;;;5113845;28;20471;-56
2024/01/26 01:55:00;;;;;;;7.93;4.38;;;11.00;99.90;;;;;;5094116;28;20488;-54
2024/01/26 01:57:27;;;;;;;4.90;4.07;;;11.00;99.90;;;;;;5093248;28;20039;-72
2024/01/26 01:59:53;;;;;;;7.20;4.05;;;11.00;99.90;;;;;;5093913;28;20384;-41
2024/01/26 02:02:23;;;;;;;7.13;4.05;;;11.00;99.90;;;;;;5093822;28;20099;-40
2024/01/26 02:04:50;;;;;;;13.82;4.25;;;11.00;99.90;;;;;;5093525;28;20480;-40
2024/01/26 02:07:15;;;;;;;5.82;3.80;;;11.00;99.90;;;;;;5107069;28;20039;-44
2024/01/26 02:09:41;;;;;;;6.38;3.90;;;11.00;99.90;;;;;;5112484;28;20031;-42
2024/01/26 02:12:07;;;;;;;9.05;4.15;;;11.00;99.90;;;;;;5114409;28;20446;-39
2024/01/26 02:14:33;;;;;;;6.75;3.92;;;11.00;99.90;;;;;;5114101;28;20029;-40
2024/01/26 02:17:00;;;;;;;8.68;4.25;;;11.00;99.90;;;;;;5110474;28;20047;-39
2024/01/26 02:19:27;;;;;;;6.55;4.22;;;11.10;99.90;;;;;;5113929;28;20476;-40
2024/01/26 02:21:53;;;;;;;6.35;3.33;;;11.00;99.90;;;;;;5101974;28;20035;-41
2024/01/26 02:24:19;;;;;;;7.18;3.67;;;11.00;99.90;;;;;;5093608;28;20518;-55
2024/01/26 02:26:46;;;;;;;5.65;3.50;;;11.00;99.90;;;;;;5093373;28;20024;-53
2024/01/26 02:29:12;;;;;;;5.90;3.45;;;11.00;99.90;;;;;;5113623;28;20099;-54
2024/01/26 02:31:37;;;;;;;5.93;3.45;;;11.00;99.90;;;;;;5106226;28;20108;-54
2024/01/26 02:34:03;;;;;;;4.53;3.63;;;11.10;99.90;;;;;;5095812;28;20484;-55
2024/01/26 02:36:31;;;;;;;6.43;3.28;;;11.10;99.90;;;;;;5105756;28;20027;-55
2024/01/26 02:38:57;;;;;;;9.10;4.72;;;11.10;99.90;;;;;;5099837;28;20535;-52
2024/01/26 02:41:22;;;;;;;6.07;4.15;;;11.20;99.90;;;;;;5093303;28;20111;-55
2024/01/26 02:43:48;;;;;;;7.57;4.15;;;11.20;99.90;;;;;;5109012;28;20012;-53
2024/01/26 02:46:14;;;;;;;7.22;4.80;;;11.10;99.90;;;;;;5096680;28;20028;-54
2024/01/26 02:48:39;;;;;;;7.43;4.78;;;11.20;99.90;;;;;;5112081;28;20030;-55
2024/01/26 02:51:05;;;;;;;8.48;4.47;;;11.20;99.90;;;;;;5111396;28;20089;-55
2024/01/26 02:53:31;;;;;;;6.13;4.00;;;11.20;99.90;;;;;;5110435;28;20027;-54
2024/01/26 02:55:58;;;;;;;13.65;6.03;;;11.30;99.90;;;;;;5113422;28;20055;-55
2024/01/26 02:58:23;;;;;;;9.73;4.88;;;11.30;99.90;;;;;;5113377;28;20027;-54
2024/01/26 03:00:49;;;;;;;7.65;4.90;;;11.30;99.90;;;;;;5095056;28;20032;-53
2024/01/26 03:03:15;;;;;;;9.10;4.78;;;11.30;99.90;;;;;;5092933;28;20111;-55
2024/01/26 03:05:41;;;;;;;8.82;5.47;;;11.30;99.90;;;;;;5096404;28;20358;-57
2024/01/26 03:08:07;;;;;;;8.68;5.28;;;11.30;99.90;;;;;;5112753;28;20080;-55
2024/01/26 03:10:33;;;;;;;7.35;4.43;;;11.30;99.90;;;;;;5111994;28;20092;-56
2024/01/26 03:12:59;;;;;;;10.68;5.63;;;11.30;99.90;;;;;;5093412;28;20025;-55
2024/01/26 03:15:27;;;;;;;10.23;6.43;;;11.30;99.90;;;;;;5092696;28;20404;-55
2024/01/26 03:17:53;;;;;;;7.50;5.10;;;11.30;99.90;;;;;;5092614;28;20071;-55
2024/01/26 03:20:19;;;;;;;8.77;5.47;;;11.40;99.90;;;;;;5092702;28;20032;-55
2024/01/26 03:22:44;;;;;;;8.98;6.45;;;11.40;99.90;;;;;;5106245;28;20024;-55
2024/01/26 03:25:10;;;;;;;18.73;6.13;;;11.40;99.90;;;;;;5092880;28;20138;-61
2024/01/26 03:27:36;;;;;;;10.02;6.03;;;11.40;99.90;;;;;;5092633;28;20376;-55
2024/01/26 03:30:03;;;;;;;11.23;6.60;;;11.40;99.90;;;;;;5093039;28;20039;-55
2024/01/26 03:32:29;;;;;;;9.43;5.68;;;11.40;99.90;;;;;;5092836;28;20024;-55
2024/01/26 03:34:55;;;;;;;9.85;5.78;;;11.40;99.90;;;;;;5092745;28;20078;-55
2024/01/26 03:37:21;;;;;;;13.43;6.68;;;11.40;99.90;;;;;;5106249;28;20544;-54
2024/01/26 03:39:46;;;;;;;13.20;5.95;;;11.40;99.90;;;;;;5112893;28;20103;-55
2024/01/26 03:42:13;;;;;;;10.02;5.47;;;11.40;99.90;;;;;;5112905;28;20024;-73
2024/01/26 03:44:40;;;;;;;12.00;5.63;;;11.50;99.90;;;;;;5093198;28;20028;-55
2024/01/26 03:47:06;;;;;;;10.57;6.38;;;11.50;99.90;;;;;;5092565;28;20024;-55
2024/01/26 03:49:31;;;;;;;9.45;5.65;;;11.50;99.90;;;;;;5092491;28;20412;-54
2024/01/26 03:51:57;;;;;;;9.82;6.30;;;11.50;99.90;;;;;;5100944;28;20023;-54
2024/01/26 03:54:23;;;;;;;11.32;5.50;;;11.50;99.90;;;;;;5112847;28;20019;-55
2024/01/26 03:56:48;;;;;;;13.98;6.07;;;11.50;99.90;;;;;;5112812;28;20019;-55
2024/01/26 03:59:14;;;;;;;13.57;6.65;;;11.60;99.90;;;;;;5111027;28;20027;-54
2024/01/26 04:01:40;;;;;;;11.00;6.25;;;11.60;99.90;;;;;;5094817;28;20025;-53
2024/01/26 04:04:06;;;;;;;11.85;6.10;;;11.60;99.90;;;;;;5092358;28;20383;-53
2024/01/26 04:06:32;;;;;;;16.10;7.10;;;11.60;99.90;;;;;;5092148;28;20464;-54
2024/01/26 04:08:59;;;;;;;12.55;6.18;;;11.70;99.90;;;;;;5092359;28;20111;-54
2024/01/26 04:11:25;;;;;;;10.40;6.28;;;11.70;99.90;;;;;;5092602;28;20495;-52
2024/01/26 04:13:50;;;;;;;11.15;6.88;;;11.60;99.90;;;;;;5092323;28;20506;-54
2024/01/26 04:16:16;;;;;;;12.68;7.68;;;11.70;99.90;;;;;;5092210;28;20025;-54
2024/01/26 04:18:43;;;;;;;12.48;6.68;;;11.70;99.90;;;;;;5095511;28;20080;-54
2024/01/26 04:21:09;;;;;;;13.50;6.93;;;11.70;99.90;;;;;;5112887;28;20441;-53
2024/01/26 04:23:35;;;;;;;11.25;6.72;;;11.70;99.90;;;;;;5106678;28;20273;-53
2024/01/26 04:26:00;;;;;;;14.27;6.95;;;11.70;99.90;;;;;;5102540;28;20046;-54
2024/01/26 04:28:26;;;;;;;11.00;7.50;;;11.70;99.90;;;;;;5095679;28;20031;-54
2024/01/26 04:30:52;;;;;;;13.25;7.57;;;11.70;99.90;;;;;;5095735;28;20036;-55
2024/01/26 04:33:17;;;;;;;16.60;7.72;;;11.70;99.90;;;;;;5097243;28;20020;-55
2024/01/26 04:35:43;;;;;;;12.10;8.02;;;11.70;99.90;;;;;;5096093;28;20056;-75
2024/01/26 04:38:09;;;;;;;18.48;8.70;;;11.60;99.90;;;;;;5115997;28;20039;-56
2024/01/26 04:40:34;;;;;;;10.73;6.80;;;11.60;99.90;;;;;;5115876;28;20082;-55
2024/01/26 04:43:01;;;;;;;14.85;8.00;;;11.60;99.90;;;;;;5100604;28;20372;-55
2024/01/26 04:45:26;;;;;;;14.10;8.13;;;11.60;99.90;;;;;;5095551;28;20095;-55
2024/01/26 04:47:52;;;;;;;16.67;7.93;;;11.60;99.90;;;;;;5095195;28;20537;-52
2024/01/26 04:50:17;;;;;;;12.15;8.25;;;11.60;99.90;;;;;;5095311;28;20056;-68
2024/01/26 04:52:43;;;;;;;16.70;8.23;;;11.60;99.90;;;;;;5098305;28;20028;-56
2024/01/26 04:55:09;;;;;;;13.65;7.05;;;11.60;99.90;;;;;;5095282;28;20047;-53
2024/01/26 04:57:35;;;;;;;10.85;6.95;;;11.60;99.90;;;;;;5095226;28;20032;-56
2024/01/26 05:00:01;;;;;;;15.60;7.45;;;11.60;99.90;;;;;;5109225;28;20083;-55
2024/01/26 05:02:26;;;;;;;12.57;7.70;;;11.60;99.90;;;;;;5103930;28;20448;-55
2024/01/26 05:04:52;;;;;;;13.90;7.47;;;11.60;99.90;;;;;;5095056;28;20533;-54
2024/01/26 05:07:18;;;;;;;12.55;7.47;;;11.70;99.90;;;;;;5104602;28;20020;-54
2024/01/26 05:09:43;;;;;;;13.50;8.05;;;11.60;99.90;;;;;;5098542;28;20084;-54
2024/01/26 05:12:10;;;;;;;14.18;7.35;;;11.50;99.90;;;;;;5093533;28;20028;-53
2024/01/26 05:14:36;;;;;;;18.05;7.97;;;11.50;99.90;;;;;;5094863;28;20365;-54
2024/01/26 05:17:03;;;;;;;11.95;7.85;;;11.50;99.90;;;;;;5094550;28;20048;-53
2024/01/26 05:19:29;;;;;;;12.50;7.63;;;11.50;99.90;;;;;;5093509;28;20044;-54
2024/01/26 05:21:55;;;;;;;22.08;9.13;;;11.50;99.90;;;;;;5098919;28;20498;-54
2024/01/26 05:24:20;;;;;;;13.75;7.72;;;11.40;99.90;;;;;;5115101;28;20024;-54
2024/01/26 05:26:46;;;;;;;14.18;8.43;;;11.40;99.90;;;;;;5108319;28;20095;-58
2024/01/26 05:29:14;;;;;;;16.05;8.45;;;11.30;99.90;;;;;;5094859;28;20502;-54
2024/01/26 05:31:41;;;;;;;16.75;9.27;;;11.30;99.90;;;;;;5094533;28;20032;-59
2024/01/26 05:34:06;;;;;;;13.80;8.02;;;11.20;99.90;;;;;;5112782;28;20023;-54
2024/01/26 05:36:32;;;;;;;12.68;8.15;;;11.20;99.90;;;;;;5113061;28;20020;-55
2024/01/26 05:38:58;;;;;;;14.38;8.18;;;11.20;99.90;;;;;;5114830;28;20440;-55
2024/01/26 05:41:23;;;;;;;13.60;7.80;;;11.20;99.90;;;;;;5114621;28;20543;-52
2024/01/26 05:43:50;;;;;;;17.00;8.32;;;11.20;99.90;;;;;;5114970;28;20157;-54
2024/01/26 05:46:16;;;;;;;18.48;7.97;;;11.10;99.90;;;;;;5108911;28;20090;-52
2024/01/26 05:48:46;;;;;;;16.05;8.32;;;11.10;99.90;;;;;;5094168;28;20103;-54
2024/01/26 05:51:12;;;;;;;12.77;7.03;;;11.10;99.90;;;;;;5094794;28;20024;-49
2024/01/26 05:53:38;;;;;;;10.90;7.68;;;11.10;99.90;;;;;;5114489;28;20051;-54
2024/01/26 05:56:04;;;;;;;10.45;6.72;;;11.10;99.90;;;;;;5102780;28;20461;-40
2024/01/26 05:58:31;;;;;;;11.73;7.18;;;11.20;99.90;;;;;;5094087;28;20115;-38
2024/01/26 06:00:57;;;;;;;16.33;7.53;;;11.10;99.90;;;;;;5092557;28;20016;-37
2024/01/26 06:03:22;;;;;;;13.30;7.03;;;11.10;99.90;;;;;;5093929;28;20055;-37
2024/01/26 06:05:48;;;;;;;14.18;8.13;;;11.10;99.90;;;;;;5102580;28;20027;-52
2024/01/26 06:08:14;;;;;;;13.10;7.00;;;11.10;99.90;;;;;;5112472;28;20027;-40
2024/01/26 06:10:39;;;;;;;16.67;7.43;;;11.10;99.90;;;;;;5112180;28;20056;-37
2024/01/26 06:13:05;;;;;;;10.82;6.75;;;11.10;99.90;;;;;;5112215;28;20072;-37
2024/01/26 06:15:31;;;;;;;14.68;6.85;;;11.10;99.90;;;;;;5093729;28;20028;-38
2024/01/26 06:17:56;;;;;;;14.63;6.47;;;11.10;99.90;;;;;;5093525;28;20055;-36
2024/01/26 06:20:22;;;;;;;10.48;6.60;;;11.10;99.90;;;;;;5092392;28;20052;-43
2024/01/26 06:22:47;;;;;;;11.35;6.47;;;11.00;99.90;;;;;;5113926;28;20023;-61
2024/01/26 06:25:13;;;;;;;10.43;5.88;;;11.00;99.90;;;;;;5114191;28;20034;-38
2024/01/26 06:27:39;;;;;;;10.77;6.63;;;11.10;99.90;;;;;;5107645;28;20024;-37
2024/01/26 06:30:05;;;;;;;11.60;6.72;;;11.10;99.90;;;;;;5093392;28;20024;-38
2024/01/26 06:32:31;;;;;;;11.65;6.72;;;11.10;99.90;;;;;;5093608;28;20400;-38
2024/01/26 06:34:57;;;;;;;8.60;6.45;;;11.10;99.90;;;;;;5093396;28;20031;-38
2024/01/26 06:37:22;;;;;;;9.38;5.85;;;11.10;99.90;;;;;;5093257;28;20032;-38
2024/01/26 06:39:48;;;;;;;14.93;6.70;;;11.00;99.90;;;;;;5097218;28;20027;-39
2024/01/26 06:42:13;;;;;;;12.88;6.40;;;11.10;99.90;;;;;;5113453;28;20348;-37
2024/01/26 06:44:39;;;;;;;9.65;6.45;;;11.00;99.90;;;;;;5113609;28;20476;-39
2024/01/26 06:47:05;;;;;;;8.38;5.88;;;11.00;99.90;;;;;;5098111;28;20431;-37
2024/01/26 06:49:30;;;;;;;9.98;6.50;;;11.10;99.90;;;;;;5092980;28;20052;-39
2024/01/26 06:51:56;;;;;;;11.75;7.65;;;11.00;99.90;;;;;;5093185;28;20031;-37
2024/01/26 06:54:22;;;;;;;10.52;7.07;;;11.10;99.90;;;;;;5093094;28;20020;-37
2024/01/26 06:56:47;;;;;;;10.02;6.22;;;11.10;99.90;;;;;;5092896;28;20115;-38
2024/01/26 06:59:13;;;;;;;11.73;6.57;;;11.10;99.90;;;;;;5093029;28;20086;-56
2024/01/26 07:01:38;;;;;;;9.23;6.55;;;11.10;99.90;;;;;;5095898;28;20039;-63
2024/01/26 07:04:04;;;;;;;9.35;6.90;;;11.20;99.90;;;;;;5112500;28;20024;-42
2024/01/26 07:06:30;;;;;;;15.50;6.60;;;11.20;99.90;;;;;;5111628;28;20387;-42
2024/01/26 07:08:55;;;;;;;10.48;6.50;;;11.20;99.90;;;;;;5113250;28;20027;-39
2024/01/26 07:11:22;;;;;;;9.43;6.82;;;11.30;99.90;;;;;;5096372;28;20028;-42
2024/01/26 07:13:48;;;;;;;14.32;6.57;;;11.40;99.90;;;;;;5092846;28;20059;-41
2024/01/26 07:16:13;;;;;;;9.93;6.53;;;11.40;99.90;;;;;;5092722;28;20464;-38
2024/01/26 07:18:39;;;;;;;15.43;6.93;;;11.30;99.90;;;;;;5092750;28;20036;-37
2024/01/26 07:21:06;;;;;;;8.48;5.97;;;11.40;99.90;;;;;;5102125;28;20028;-39
2024/01/26 07:23:32;;;;;;;9.15;5.15;;;11.40;99.90;;;;;;5113380;28;20463;-39
2024/01/26 07:25:59;;;;;;;9.95;5.20;;;11.50;99.90;;;;;;5112999;28;20024;-41
2024/01/26 07:28:24;;;;;;;10.25;5.90;;;11.50;99.90;;;;;;5113159;28;20577;-38
2024/01/26 07:30:50;;;;;;;6.57;5.35;;;11.40;99.90;;;;;;5108156;28;20055;-40
2024/01/26 07:33:15;;;;;;;14.98;5.63;;;11.50;99.90;;;;;;5103918;28;20027;-38
2024/01/26 07:35:41;;;;;;;8.05;5.40;;;11.50;99.90;;;;;;5107813;28;20024;-38
2024/01/26 07:38:08;;;;;;;7.68;5.22;;;11.50;99.90;;;;;;5091325;28;20027;-38
2024/01/26 07:40:33;;;;;;;15.30;5.47;;;11.60;99.90;;;;;;5092855;28;20465;-48
2024/01/26 07:42:59;;;;;;;6.75;5.30;;;11.60;99.90;;;;;;5101373;28;20042;-35
2024/01/26 07:45:25;;;;;;;11.05;5.63;;;11.60;99.90;;;;;;5104828;28;20114;-37
2024/01/26 07:47:52;;;;;;;12.77;6.05;;;11.60;99.90;;;;;;5091498;28;20498;-39
2024/01/26 07:50:18;;;;;;;10.65;5.82;;;11.50;99.90;;;;;;5092553;28;20487;-39
2024/01/26 07:52:43;;;;;;;9.65;5.13;;;11.60;99.90;;;;;;5112003;28;20035;-38
2024/01/26 07:55:09;;;;;;;9.43;5.55;;;11.60;99.90;;;;;;5111079;28;20023;-39
2024/01/26 07:57:37;;;;;;;7.90;5.10;;;11.70;99.90;;;;;;5115107;28;20027;-36
2024/01/26 08:00:08;;;;;;;11.45;5.82;;;11.70;99.90;;;;;;5096811;28;20031;-37
2024/01/26 08:02:34;;;;;;;11.52;5.53;;;11.70;99.90;;;;;;5096429;28;20035;-36
2024/01/26 08:05:00;;;;;;;9.60;5.65;;;11.60;99.90;;;;;;5096545;28;20032;-38
2024/01/26 08:07:26;;;;;;;8.18;5.18;;;11.70;99.90;;;;;;5104221;28;20405;-36
2024/01/26 08:09:52;;;;;;;13.73;5.63;;;11.70;99.90;;;;;;5103931;28;20100;-40
2024/01/26 08:12:17;;;;;;;14.43;5.68;;;11.80;99.90;;;;;;5096204;28;20404;-41
2024/01/26 08:14:43;;;;;;;10.07;5.35;;;11.80;99.90;;;;;;5095831;28;20538;-36
2024/01/26 08:17:08;;;;;;;11.02;5.47;;;11.80;99.90;;;;;;5096010;28;20123;-37
2024/01/26 08:19:35;;;;;;;9.98;5.20;;;11.80;99.90;;;;;;5095810;28;20375;-38
2024/01/26 08:22:01;;;;;;;7.85;5.15;;;11.80;99.90;;;;;;5103955;28;20020;-38
2024/01/26 08:24:27;;;;;;;10.32;4.50;;;11.90;99.90;;;;;;5115031;28;20114;-41
2024/01/26 08:26:52;;;;;;;10.07;4.13;;;11.80;99.90;;;;;;5116296;28;20055;-54
2024/01/26 08:29:21;;;;;;;15.10;4.88;;;11.80;99.90;;;;;;5114471;28;20017;-55
2024/01/26 08:31:47;;;;;;;9.65;4.82;;;11.70;99.90;;;;;;5116089;28;20536;-54
2024/01/26 08:34:13;;;;;;;6.55;3.80;;;11.60;99.90;;;;;;5095358;28;20357;-54
2024/01/26 08:36:39;;;;;;;8.82;5.10;;;11.60;99.90;;;;;;5099798;28;20034;-53
2024/01/26 08:39:04;;;;;;;13.00;3.58;;;11.60;99.90;;;;;;5115341;28;20020;-51
2024/01/26 08:41:30;;;;;;;8.27;2.78;;;11.70;99.90;;;;;;5114807;28;20035;-53
2024/01/26 08:43:56;;;;;;;9.65;2.13;;;11.60;99.90;;;;;;5115847;28;20015;-54
2024/01/26 08:46:21;;;;;;;6.95;2.05;;;11.50;99.90;;;;;;5111641;27;20520;-53
2024/01/26 08:48:47;;;;;;;11.65;1.75;;;11.40;99.90;;;;;;5095252;28;20122;-55
2024/01/26 08:51:13;;;;;;;3.58;1.58;;;11.30;99.90;;;;;;5094045;28;20405;-55
2024/01/26 08:53:38;;;;;;;5.45;1.92;;;11.20;99.90;;;;;;5113988;28;20027;-51
2024/01/26 08:56:05;;;;;;;8.48;2.40;;;11.10;99.90;;;;;;5113843;28;20034;-52
2024/01/26 08:58:30;;;;;;;10.80;1.83;;;11.10;99.90;;;;;;5115867;28;20467;-52
2024/01/26 09:00:56;;;;;;;9.45;1.40;;;11.00;99.90;;;;;;5115515;28;20035;-53
2024/01/26 09:03:22;;;;;;;17.23;1.75;;;10.90;99.90;;;;;;5115459;28;20430;-53
2024/01/26 09:05:48;;;;;;;12.02;2.17;;;10.60;99.90;;;;;;5100078;28;20042;-58
2024/01/26 09:08:14;;;;;;;12.25;1.70;;;10.50;99.90;;;;;;5115133;28;20020;-72
2024/01/26 09:10:40;;;;;;;12.32;1.63;;;10.40;99.90;;;;;;5115351;28;20031;-45
2024/01/26 09:13:06;;;;;;;12.32;1.80;;;10.30;99.90;;;;;;5115350;28;20369;-48
2024/01/26 09:15:32;;;;;;;9.57;1.30;;;10.10;99.90;;;;;;5097700;28;20475;-44
2024/01/26 09:17:58;;;;;;;23.50;2.08;;;10.00;99.90;;;;;;5094673;28;20055;-48
2024/01/26 09:20:24;;;;;;;7.82;1.15;;;9.90;99.90;;;;;;5101538;28;20102;-50
2024/01/26 09:22:49;;;;;;;12.20;1.10;;;9.70;99.90;;;;;;5115168;28;20091;-45
2024/01/26 09:25:15;;;;;;;4.68;0.73;;;9.30;99.90;;;;;;5109191;28;20028;-49
2024/01/26 09:27:41;;;;;;;12.93;0.93;;;9.10;99.90;;;;;;5094659;28;20028;-46
2024/01/26 09:30:08;;;;;;;17.73;1.35;;;8.90;99.90;;;;;;5094641;28;20103;-45
2024/01/26 09:32:34;;;;;;;7.50;0.60;;;8.80;99.90;;;;;;5098252;28;20027;-50
2024/01/26 09:35:02;;;;;;;7.85;0.90;;;8.70;99.90;;;;;;5095720;28;20495;-52
2024/01/26 09:37:27;;;;;;;5.72;1.08;;;8.70;99.90;;;;;;5094812;28;20024;-51
2024/01/26 09:39:53;;;;;;;4.95;0.50;;;8.60;99.90;;;;;;5094316;28;20381;-47
2024/01/26 09:42:19;;;;;;;2.65;0.50;;;8.50;99.90;;;;;;5094320;28;20034;-52
2024/01/26 09:44:44;;;;;;;4.38;0.50;;;8.50;99.90;;;;;;5094487;28;20417;-51
2024/01/26 09:47:13;;;;;;;8.23;2.25;;;8.40;99.90;;;;;;5102930;28;20028;-50
2024/01/26 09:49:46;;;;;;;7.00;0.50;;;8.40;99.90;;;;;;5111364;28;20084;-49
2024/01/26 09:52:13;;;;;;;15.00;2.22;;;8.40;99.90;;;;;;5111202;28;20388;-52
2024/01/26 09:54:40;;;;;;;11.50;0.70;;;8.40;99.90;;;;;;5114733;28;20521;-53
2024/01/26 09:57:10;;;;;;;9.30;1.60;;;8.50;99.90;;;;;;5113157;28;20077;-52
2024/01/26 09:59:35;;;;;;;11.82;1.52;;;8.60;99.90;;;;;;5095857;28;20087;-64
2024/01/26 10:02:02;;;;;;;12.55;1.40;;;8.60;99.90;;;;;;5094273;28;20048;-50
2024/01/26 10:04:27;;;;;;;12.50;1.10;;;8.60;99.90;;;;;;5093981;28;20083;-52
2024/01/26 10:06:53;;;;;;;7.82;1.60;;;8.60;99.90;;;;;;5093777;28;20426;-45
2024/01/26 10:09:18;;;;;;;5.78;1.17;;;8.60;99.90;;;;;;5099966;28;20031;-51
2024/01/26 10:11:44;;;;;;;12.80;1.38;;;8.70;99.90;;;;;;5112729;28;20036;-56
2024/01/26 10:14:20;;;;;;;8.13;1.70;;;8.80;99.90;;;;;;5114172;28;20180;-55
2024/01/26 10:16:54;;;;;;;15.40;2.28;;;8.80;99.90;;;;;;5108625;28;20130;-65
2024/01/26 10:19:23;;;;;;;5.30;0.88;;;8.80;99.90;;;;;;5113764;28;20085;-53
2024/01/26 10:21:48;;;;;;;4.82;1.05;;;8.80;99.90;;;;;;5095409;28;20472;-74
2024/01/26 10:24:17;;;;;;;6.50;1.75;;;8.80;99.90;;;;;;5092350;28;20094;-54
2024/01/26 10:26:43;;;;;;;21.92;2.50;;;8.80;99.90;;;;;;5106211;28;20023;-52
2024/01/26 10:29:10;;;;;;;11.75;1.90;;;8.80;99.90;;;;;;5113887;28;20039;-53
2024/01/26 10:31:37;;;;;;;5.87;0.77;;;8.80;99.90;;;;;;5114147;28;20038;-54
2024/01/26 10:34:04;;;;;;;7.07;0.95;;;8.90;99.90;;;;;;5097370;28;20055;-54
2024/01/26 10:36:33;;;;;;;6.72;1.05;;;8.90;99.90;;;;;;5113988;28;20494;-53
2024/01/26 10:39:01;;;;;;;3.55;0.93;;;8.90;99.90;;;;;;5101271;28;20028;-54
2024/01/26 10:41:31;;;;;;;4.95;0.93;;;8.90;99.90;;;;;;5093032;28;20502;-50
2024/01/26 10:43:57;;;;;;;11.13;0.85;;;8.90;99.90;;;;;;5093325;28;20472;-55
2024/01/26 10:46:24;;;;;;;8.85;1.15;;;9.00;99.90;;;;;;5102577;28;20015;-52
2024/01/26 10:48:52;;;;;;;14.02;1.40;;;8.90;99.90;;;;;;5113523;28;20491;-50
2024/01/26 10:51:19;;;;;;;6.68;1.30;;;8.90;99.90;;;;;;5112083;28;20580;-66
2024/01/26 10:53:46;;;;;;;12.80;1.40;;;9.00;99.90;;;;;;5113573;28;20038;-52
2024/01/26 10:56:12;;;;;;;7.47;1.42;;;8.90;99.90;;;;;;5113433;28;20027;-55
2024/01/26 10:58:37;;;;;;;7.50;1.05;;;8.90;99.90;;;;;;5113459;28;20387;-53
2024/01/26 11:01:05;;;;;;;7.45;1.67;;;8.80;99.90;;;;;;5094074;28;20024;-54
2024/01/26 11:03:31;;;;;;;16.48;2.13;;;8.90;99.90;;;;;;5098106;28;20111;-55
2024/01/26 11:05:58;;;;;;;6.10;1.42;;;8.90;99.90;;;;;;5108643;28;20028;-52
2024/01/26 11:08:27;;;;;;;3.07;1.03;;;8.90;99.90;;;;;;5093007;28;20101;-55
2024/01/26 11:10:55;;;;;;;16.00;1.75;;;8.90;99.90;;;;;;5092911;28;20042;-54
2024/01/26 11:13:22;;;;;;;6.60;0.98;;;8.90;99.90;;;;;;5093435;28;20164;-52
2024/01/26 11:15:49;;;;;;;11.10;1.80;;;8.90;99.90;;;;;;5092737;28;20034;-54
2024/01/26 11:18:25;;;;;;;7.35;2.10;;;8.80;99.90;;;;;;5097158;28;20400;-50
2024/01/26 11:20:51;;;;;;;7.20;1.27;;;8.80;99.90;;;;;;5111467;28;20556;-51
2024/01/26 11:23:17;;;;;;;11.05;1.30;;;8.90;99.90;;;;;;5113082;28;20028;-51
2024/01/26 11:25:44;;;;;;;5.93;1.02;;;8.80;99.90;;;;;;5095502;28;20016;-53
2024/01/26 11:28:14;;;;;;;14.93;1.60;;;8.70;99.90;;;;;;5092672;28;20081;-67
2024/01/26 11:30:40;;;;;;;11.77;1.65;;;8.70;99.90;;;;;;5097233;28;20503;-68
2024/01/26 11:33:16;;;;;;;16.17;1.48;;;8.80;99.90;;;;;;5106769;28;20070;-63
2024/01/26 11:35:42;;;;;;;12.82;1.58;;;8.70;99.90;;;;;;5099684;28;20028;-54
2024/01/26 11:38:09;;;;;;;16.50;1.52;;;8.80;99.90;;;;;;5096740;28;20430;-50
2024/01/26 11:40:35;;;;;;;9.35;1.20;;;8.80;99.90;;;;;;5096650;28;20032;-52
2024/01/26 11:43:00;;;;;;;19.80;3.33;;;8.70;99.90;;;;;;5096719;28;20077;-55
2024/01/26 11:45:35;;;;;;;22.05;1.75;;;8.70;99.90;;;;;;5096514;28;20431;-57
2024/01/26 11:48:06;;;;;;;8.57;1.55;;;8.70;99.90;;;;;;5096396;28;20032;-39
2024/01/26 11:50:31;;;;;;;18.27;2.25;;;8.80;99.90;;;;;;5112336;28;20059;-64
2024/01/26 11:52:57;;;;;;;7.50;1.33;;;8.80;99.90;;;;;;5096418;28;20028;-43
2024/01/26 11:55:23;;;;;;;11.07;1.70;;;8.90;99.90;;;;;;5096399;28;20471;-40
2024/01/26 11:57:51;;;;;;;15.02;2.33;;;8.80;99.90;;;;;;5096372;28;20080;-54
2024/01/26 12:00:20;;;;;;;6.60;1.15;;;8.80;99.90;;;;;;5095954;28;20020;-56
2024/01/26 12:02:46;;;;;;;13.27;1.80;;;8.80;99.90;;;;;;5101622;28;20353;-58
2024/01/26 12:05:11;;;;;;;17.73;1.73;;;8.80;99.90;;;;;;5097509;28;20023;-55
2024/01/26 12:07:37;;;;;;;10.95;1.40;;;8.90;99.90;;;;;;5096094;28;20020;-56
2024/01/26 12:10:03;;;;;;;14.95;2.30;;;8.90;99.90;;;;;;5096004;28;20476;-57
2024/01/26 12:12:30;;;;;;;15.57;2.78;;;8.90;99.90;;;;;;5095981;28;20153;-55
2024/01/26 12:14:56;;;;;;;11.68;1.80;;;9.00;99.90;;;;;;5096035;28;20533;-57
2024/01/26 12:17:22;;;;;;;17.73;1.63;;;8.90;99.90;;;;;;5108423;28;20044;-57
2024/01/26 12:19:49;;;;;;;12.40;2.55;;;9.00;99.90;;;;;;5115973;28;20084;-57
2024/01/26 12:22:16;;;;;;;5.93;1.75;;;9.00;99.90;;;;;;5102300;28;20024;-57
2024/01/26 12:24:42;;;;;;;10.30;1.37;;;9.10;99.90;;;;;;5100803;28;20426;-58
2024/01/26 12:27:09;;;;;;;18.50;1.83;;;9.10;99.90;;;;;;5095736;28;20024;-59
2024/01/26 12:29:35;;;;;;;12.18;1.45;;;9.10;99.90;;;;;;5095687;28;20024;-57
2024/01/26 12:32:10;;;;;;;14.02;1.42;;;9.10;99.90;;;;;;5109604;28;20494;-57
2024/01/26 12:34:37;;;;;;;7.70;0.82;;;9.10;99.90;;;;;;5095808;28;20491;-58
2024/01/26 12:37:06;;;;;;;6.90;1.23;;;9.20;99.90;;;;;;5095711;28;20016;-58